sensor_id;sensor_type;location;lat;lon;timestamp;pressure;altitude;pressure_sealevel;temperature;humidity
21361;BME280;10839;43.206;23.550;2023-02-27T00:01:42;96364.91;;;9.02;90.99
21361;BME280;10839;43.206;23.550;2023-02-27T00:04:08;96371.09;;;8.96;90.62
21361;BME280;10839;43.206;23.550;2023-02-27T00:06:33;96366.16;;;8.86;91.64
21361;BME280;10839;43.206;23.550;2023-02-27T00:08:59;96376.47;;;8.96;91.49
21361;BME280;10839;43.206;23.550;2023-02-27T00:11:25;96378.34;;;9.02;90.56
21361;BME280;10839;43.206;23.550;2023-02-27T00:13:50;96388.06;;;9.03;90.10
21361;BME280;10839;43.206;23.550;2023-02-27T00:16:16;96383.03;;;8.87;91.28
21361;BME280;10839;43.206;23.550;2023-02-27T00:18:42;96384.31;;;8.97;91.27
21361;BME280;10839;43.206;23.550;2023-02-27T00:21:08;96388.47;;;9.13;89.78
21361;BME280;10839;43.206;23.550;2023-02-27T00:23:34;96378.94;;;8.91;90.11
21361;BME280;10839;43.206;23.550;2023-02-27T00:26:00;96374.34;;;8.78;90.83
21361;BME280;10839;43.206;23.550;2023-02-27T00:28:27;96383.06;;;9.00;89.15
21361;BME280;10839;43.206;23.550;2023-02-27T00:30:53;96396.44;;;8.74;90.05
21361;BME280;10839;43.206;23.550;2023-02-27T00:33:19;96386.75;;;8.73;90.02
21361;BME280;10839;43.206;23.550;2023-02-27T00:35:54;96397.44;;;8.60;90.99
21361;BME280;10839;43.206;23.550;2023-02-27T00:38:19;96401.59;;;8.82;90.20
21361;BME280;10839;43.206;23.550;2023-02-27T00:40:45;96396.97;;;8.50;90.53
21361;BME280;10839;43.206;23.550;2023-02-27T00:43:11;96382.88;;;8.28;92.39
21361;BME280;10839;43.206;23.550;2023-02-27T00:45:37;96389.94;;;8.49;91.63
21361;BME280;10839;43.206;23.550;2023-02-27T00:48:02;96393.47;;;8.49;91.22
21361;BME280;10839;43.206;23.550;2023-02-27T00:50:28;96399.88;;;8.48;90.88
21361;BME280;10839;43.206;23.550;2023-02-27T00:52:54;96400.53;;;8.23;92.62
21361;BME280;10839;43.206;23.550;2023-02-27T00:55:20;96403.97;;;8.44;91.62
21361;BME280;10839;43.206;23.550;2023-02-27T00:57:46;96391.63;;;8.50;90.66
21361;BME280;10839;43.206;23.550;2023-02-27T01:00:12;96410.53;;;8.42;90.76
21361;BME280;10839;43.206;23.550;2023-02-27T01:02:38;96424.50;;;8.31;91.64
21361;BME280;10839;43.206;23.550;2023-02-27T01:05:04;96439.66;;;8.45;91.05
21361;BME280;10839;43.206;23.550;2023-02-27T01:07:30;96441.69;;;8.43;90.34
21361;BME280;10839;43.206;23.550;2023-02-27T01:09:55;96436.13;;;7.82;93.64
21361;BME280;10839;43.206;23.550;2023-02-27T01:12:21;96446.88;;;7.89;93.83
21361;BME280;10839;43.206;23.550;2023-02-27T01:14:47;96447.72;;;7.90;93.05
21361;BME280;10839;43.206;23.550;2023-02-27T01:17:16;96454.63;;;7.77;92.93
21361;BME280;10839;43.206;23.550;2023-02-27T01:19:42;96445.31;;;7.46;93.91
21361;BME280;10839;43.206;23.550;2023-02-27T01:22:07;96435.34;;;7.89;92.89
21361;BME280;10839;43.206;23.550;2023-02-27T01:24:33;96444.09;;;8.04;90.27
21361;BME280;10839;43.206;23.550;2023-02-27T01:26:59;96440.38;;;7.70;92.02
21361;BME280;10839;43.206;23.550;2023-02-27T01:29:25;96458.00;;;7.58;93.16
21361;BME280;10839;43.206;23.550;2023-02-27T01:31:51;96457.16;;;7.86;91.97
21361;BME280;10839;43.206;23.550;2023-02-27T01:34:19;96471.28;;;8.01;90.89
21361;BME280;10839;43.206;23.550;2023-02-27T01:36:45;96486.34;;;7.53;92.67
21361;BME280;10839;43.206;23.550;2023-02-27T01:39:15;96496.09;;;7.82;92.26
21361;BME280;10839;43.206;23.550;2023-02-27T01:41:41;96511.13;;;7.82;91.90
21361;BME280;10839;43.206;23.550;2023-02-27T01:44:10;96522.84;;;7.60;92.94
21361;BME280;10839;43.206;23.550;2023-02-27T01:46:37;96527.75;;;7.15;94.53
21361;BME280;10839;43.206;23.550;2023-02-27T01:51:39;96536.06;;;7.62;89.87
21361;BME280;10839;43.206;23.550;2023-02-27T01:54:08;96539.78;;;7.25;90.78
21361;BME280;10839;43.206;23.550;2023-02-27T01:56:35;96543.38;;;7.32;90.56
21361;BME280;10839;43.206;23.550;2023-02-27T01:59:06;96546.31;;;7.37;89.70
21361;BME280;10839;43.206;23.550;2023-02-27T02:01:34;96561.19;;;7.25;89.86
21361;BME280;10839;43.206;23.550;2023-02-27T02:07:16;96561.38;;;7.38;88.98
21361;BME280;10839;43.206;23.550;2023-02-27T02:09:52;96561.31;;;7.17;89.91
21361;BME280;10839;43.206;23.550;2023-02-27T02:12:29;96567.97;;;7.42;89.13
21361;BME280;10839;43.206;23.550;2023-02-27T02:14:56;96557.03;;;7.58;87.84
21361;BME280;10839;43.206;23.550;2023-02-27T02:20:27;96569.34;;;7.17;92.91
21361;BME280;10839;43.206;23.550;2023-02-27T02:23:27;96576.00;;;7.42;91.99
21361;BME280;10839;43.206;23.550;2023-02-27T02:26:20;96592.56;;;7.31;91.95
21361;BME280;10839;43.206;23.550;2023-02-27T02:37:13;96590.19;;;7.07;97.49
21361;BME280;10839;43.206;23.550;2023-02-27T02:42:22;96771.88;;;6.94;98.26
21361;BME280;10839;43.206;23.550;2023-02-27T02:56:35;96732.16;;;6.54;100.00
21361;BME280;10839;43.206;23.550;2023-02-27T02:59:21;96718.50;;;6.86;100.00
21361;BME280;10839;43.206;23.550;2023-02-27T03:01:56;96711.50;;;6.85;100.00
21361;BME280;10839;43.206;23.550;2023-02-27T03:04:28;96717.69;;;7.00;100.00
21361;BME280;10839;43.206;23.550;2023-02-27T03:07:05;96694.69;;;6.91;100.00
21361;BME280;10839;43.206;23.550;2023-02-27T03:09:44;96684.19;;;7.04;100.00
21361;BME280;10839;43.206;23.550;2023-02-27T03:12:15;96688.72;;;7.18;100.00
21361;BME280;10839;43.206;23.550;2023-02-27T03:14:51;96691.38;;;7.33;100.00
21361;BME280;10839;43.206;23.550;2023-02-27T03:20:07;96661.25;;;7.45;100.00
21361;BME280;10839;43.206;23.550;2023-02-27T03:22:37;96647.69;;;7.82;100.00
21361;BME280;10839;43.206;23.550;2023-02-27T03:25:07;96650.81;;;7.50;100.00
21361;BME280;10839;43.206;23.550;2023-02-27T03:27:42;96671.03;;;7.53;100.00
21361;BME280;10839;43.206;23.550;2023-02-27T03:30:22;96679.94;;;7.74;100.00
21361;BME280;10839;43.206;23.550;2023-02-27T03:33:07;96679.81;;;7.61;100.00
21361;BME280;10839;43.206;23.550;2023-02-27T03:35:44;96697.28;;;6.99;100.00
21361;BME280;10839;43.206;23.550;2023-02-27T03:38:19;96701.41;;;6.87;100.00
21361;BME280;10839;43.206;23.550;2023-02-27T03:41:04;96704.66;;;6.97;100.00
21361;BME280;10839;43.206;23.550;2023-02-27T03:43:56;96714.91;;;6.42;100.00
21361;BME280;10839;43.206;23.550;2023-02-27T03:46:25;96720.78;;;6.15;100.00
21361;BME280;10839;43.206;23.550;2023-02-27T03:48:52;96730.06;;;6.27;100.00
21361;BME280;10839;43.206;23.550;2023-02-27T03:51:21;96741.06;;;6.24;100.00
21361;BME280;10839;43.206;23.550;2023-02-27T03:56:15;96771.69;;;6.81;100.00
21361;BME280;10839;43.206;23.550;2023-02-27T03:58:44;96763.16;;;7.00;100.00
21361;BME280;10839;43.206;23.550;2023-02-27T04:01:10;96769.53;;;7.28;100.00
21361;BME280;10839;43.206;23.550;2023-02-27T04:03:42;96786.88;;;7.61;100.00
21361;BME280;10839;43.206;23.550;2023-02-27T04:06:15;96795.47;;;7.71;100.00
21361;BME280;10839;43.206;23.550;2023-02-27T04:12:46;96800.72;;;7.79;100.00
21361;BME280;10839;43.206;23.550;2023-02-27T04:20:41;96813.97;;;8.02;100.00
21361;BME280;10839;43.206;23.550;2023-02-27T04:23:12;96826.56;;;8.02;100.00
21361;BME280;10839;43.206;23.550;2023-02-27T04:25:42;96851.91;;;8.20;100.00
21361;BME280;10839;43.206;23.550;2023-02-27T04:28:16;96861.28;;;8.10;100.00
21361;BME280;10839;43.206;23.550;2023-02-27T04:33:37;96888.47;;;8.07;100.00
21361;BME280;10839;43.206;23.550;2023-02-27T04:36:29;96911.88;;;7.75;100.00
21361;BME280;10839;43.206;23.550;2023-02-27T04:39:05;96921.28;;;7.20;100.00
21361;BME280;10839;43.206;23.550;2023-02-27T04:41:53;96923.63;;;7.37;100.00
21361;BME280;10839;43.206;23.550;2023-02-27T04:44:24;96919.19;;;7.30;100.00
21361;BME280;10839;43.206;23.550;2023-02-27T04:46:51;96943.56;;;7.12;100.00
21361;BME280;10839;43.206;23.550;2023-02-27T04:49:24;96955.28;;;7.11;100.00
21361;BME280;10839;43.206;23.550;2023-02-27T04:54:37;96964.69;;;7.07;100.00
21361;BME280;10839;43.206;23.550;2023-02-27T04:57:09;96950.06;;;6.95;100.00
21361;BME280;10839;43.206;23.550;2023-02-27T04:59:40;96961.69;;;7.02;100.00
21361;BME280;10839;43.206;23.550;2023-02-27T05:02:16;96982.41;;;7.08;100.00
21361;BME280;10839;43.206;23.550;2023-02-27T05:04:45;96981.75;;;7.06;100.00
21361;BME280;10839;43.206;23.550;2023-02-27T05:07:17;96981.84;;;7.35;100.00
21361;BME280;10839;43.206;23.550;2023-02-27T05:10:01;96981.09;;;7.49;100.00
21361;BME280;10839;43.206;23.550;2023-02-27T05:12:50;96976.22;;;6.85;100.00
21361;BME280;10839;43.206;23.550;2023-02-27T05:15:23;96990.38;;;7.16;100.00
21361;BME280;10839;43.206;23.550;2023-02-27T05:18:13;96993.28;;;7.29;100.00
21361;BME280;10839;43.206;23.550;2023-02-27T05:29:35;97023.75;;;6.98;100.00
21361;BME280;10839;43.206;23.550;2023-02-27T05:37:19;97042.38;;;7.14;100.00
21361;BME280;10839;43.206;23.550;2023-02-27T05:39:50;97040.03;;;6.88;100.00
21361;BME280;10839;43.206;23.550;2023-02-27T05:42:23;97038.34;;;6.87;100.00
21361;BME280;10839;43.206;23.550;2023-02-27T05:45:06;97040.16;;;6.95;100.00
21361;BME280;10839;43.206;23.550;2023-02-27T05:47:36;97057.72;;;6.89;100.00
21361;BME280;10839;43.206;23.550;2023-02-27T05:50:20;97049.94;;;7.10;100.00
21361;BME280;10839;43.206;23.550;2023-02-27T05:52:47;97045.78;;;7.08;100.00
21361;BME280;10839;43.206;23.550;2023-02-27T05:55:24;97041.59;;;6.75;100.00
21361;BME280;10839;43.206;23.550;2023-02-27T06:03:02;97076.00;;;6.78;100.00
21361;BME280;10839;43.206;23.550;2023-02-27T06:05:28;97072.66;;;6.76;100.00
21361;BME280;10839;43.206;23.550;2023-02-27T06:07:54;97071.59;;;6.93;100.00
21361;BME280;10839;43.206;23.550;2023-02-27T06:10:20;97073.19;;;6.71;100.00
21361;BME280;10839;43.206;23.550;2023-02-27T06:12:46;97071.75;;;6.53;100.00
21361;BME280;10839;43.206;23.550;2023-02-27T06:15:12;97093.50;;;6.88;100.00
21361;BME280;10839;43.206;23.550;2023-02-27T06:17:38;97091.81;;;6.87;100.00
21361;BME280;10839;43.206;23.550;2023-02-27T06:20:08;97097.75;;;6.75;100.00
21361;BME280;10839;43.206;23.550;2023-02-27T06:22:34;97097.16;;;6.95;100.00
21361;BME280;10839;43.206;23.550;2023-02-27T06:25:00;97101.84;;;6.93;100.00
21361;BME280;10839;43.206;23.550;2023-02-27T06:27:26;97109.44;;;6.66;100.00
21361;BME280;10839;43.206;23.550;2023-02-27T06:29:52;97117.81;;;7.09;100.00
21361;BME280;10839;43.206;23.550;2023-02-27T06:32:19;97113.50;;;7.08;100.00
21361;BME280;10839;43.206;23.550;2023-02-27T06:34:45;97134.63;;;6.87;100.00
21361;BME280;10839;43.206;23.550;2023-02-27T06:37:11;97134.97;;;6.84;100.00
21361;BME280;10839;43.206;23.550;2023-02-27T06:39:37;97131.16;;;7.17;100.00
21361;BME280;10839;43.206;23.550;2023-02-27T06:42:03;97145.63;;;7.00;100.00
21361;BME280;10839;43.206;23.550;2023-02-27T06:44:29;97146.66;;;6.91;100.00
21361;BME280;10839;43.206;23.550;2023-02-27T06:46:54;97142.84;;;6.78;100.00
21361;BME280;10839;43.206;23.550;2023-02-27T06:49:20;97161.72;;;6.84;100.00
21361;BME280;10839;43.206;23.550;2023-02-27T06:51:46;97150.41;;;6.58;100.00
21361;BME280;10839;43.206;23.550;2023-02-27T06:54:12;97153.75;;;6.60;100.00
21361;BME280;10839;43.206;23.550;2023-02-27T06:56:38;97164.06;;;6.79;100.00
21361;BME280;10839;43.206;23.550;2023-02-27T06:59:04;97154.69;;;6.83;100.00
21361;BME280;10839;43.206;23.550;2023-02-27T07:01:30;97149.91;;;7.09;100.00
21361;BME280;10839;43.206;23.550;2023-02-27T07:03:56;97146.56;;;7.07;100.00
21361;BME280;10839;43.206;23.550;2023-02-27T07:06:22;97144.16;;;7.28;100.00
21361;BME280;10839;43.206;23.550;2023-02-27T07:08:48;97145.31;;;6.95;100.00
21361;BME280;10839;43.206;23.550;2023-02-27T07:11:13;97154.69;;;6.83;100.00
21361;BME280;10839;43.206;23.550;2023-02-27T07:13:40;97152.38;;;6.72;100.00
21361;BME280;10839;43.206;23.550;2023-02-27T07:16:06;97158.72;;;6.79;100.00
21361;BME280;10839;43.206;23.550;2023-02-27T07:18:33;97159.34;;;6.89;100.00
21361;BME280;10839;43.206;23.550;2023-02-27T07:20:59;97154.88;;;7.28;100.00
21361;BME280;10839;43.206;23.550;2023-02-27T07:23:24;97157.50;;;7.36;100.00
21361;BME280;10839;43.206;23.550;2023-02-27T07:25:50;97168.59;;;7.17;100.00
21361;BME280;10839;43.206;23.550;2023-02-27T07:28:17;97159.88;;;7.31;100.00
21361;BME280;10839;43.206;23.550;2023-02-27T07:30:44;97161.06;;;7.59;100.00
21361;BME280;10839;43.206;23.550;2023-02-27T07:33:10;97168.81;;;7.46;98.71
21361;BME280;10839;43.206;23.550;2023-02-27T07:35:36;97173.72;;;7.65;98.11
21361;BME280;10839;43.206;23.550;2023-02-27T07:38:02;97178.69;;;8.30;95.39
21361;BME280;10839;43.206;23.550;2023-02-27T07:40:28;97183.03;;;8.00;94.32
21361;BME280;10839;43.206;23.550;2023-02-27T07:42:54;97181.38;;;7.76;94.85
21361;BME280;10839;43.206;23.550;2023-02-27T07:45:21;97182.28;;;8.37;93.52
21361;BME280;10839;43.206;23.550;2023-02-27T07:47:48;97184.16;;;9.96;85.50
21361;BME280;10839;43.206;23.550;2023-02-27T07:50:13;97190.16;;;9.98;82.86
21361;BME280;10839;43.206;23.550;2023-02-27T07:52:41;97190.97;;;10.13;84.07
21361;BME280;10839;43.206;23.550;2023-02-27T07:55:08;97186.50;;;10.63;80.15
21361;BME280;10839;43.206;23.550;2023-02-27T07:57:35;97186.13;;;10.45;79.45
21361;BME280;10839;43.206;23.550;2023-02-27T08:00:04;97189.28;;;9.91;81.13
21361;BME280;10839;43.206;23.550;2023-02-27T08:02:37;97197.38;;;10.12;82.49
21361;BME280;10839;43.206;23.550;2023-02-27T08:05:04;97183.06;;;11.03;77.44
21361;BME280;10839;43.206;23.550;2023-02-27T08:07:30;97201.53;;;11.06;76.36
21361;BME280;10839;43.206;23.550;2023-02-27T08:09:56;97198.84;;;10.85;73.24
21361;BME280;10839;43.206;23.550;2023-02-27T08:12:22;97200.16;;;10.89;70.92
21361;BME280;10839;43.206;23.550;2023-02-27T08:14:48;97211.75;;;11.51;70.10
21361;BME280;10839;43.206;23.550;2023-02-27T08:17:16;97211.16;;;12.03;66.46
21361;BME280;10839;43.206;23.550;2023-02-27T08:19:42;97218.50;;;11.06;69.70
21361;BME280;10839;43.206;23.550;2023-02-27T08:22:08;97219.03;;;10.68;72.28
21361;BME280;10839;43.206;23.550;2023-02-27T08:24:34;97212.97;;;10.87;72.55
21361;BME280;10839;43.206;23.550;2023-02-27T08:26:59;97211.56;;;12.00;65.67
21361;BME280;10839;43.206;23.550;2023-02-27T08:29:26;97222.13;;;10.92;68.76
21361;BME280;10839;43.206;23.550;2023-02-27T08:31:52;97217.09;;;10.83;70.24
21361;BME280;10839;43.206;23.550;2023-02-27T08:34:18;97227.50;;;10.92;69.95
21361;BME280;10839;43.206;23.550;2023-02-27T08:36:44;97235.38;;;10.94;68.81
21361;BME280;10839;43.206;23.550;2023-02-27T08:39:10;97231.66;;;10.95;68.25
21361;BME280;10839;43.206;23.550;2023-02-27T08:41:36;97223.22;;;11.32;68.88
21361;BME280;10839;43.206;23.550;2023-02-27T08:44:02;97232.06;;;10.92;69.53
21361;BME280;10839;43.206;23.550;2023-02-27T08:46:28;97233.09;;;11.18;69.33
21361;BME280;10839;43.206;23.550;2023-02-27T08:48:53;97241.69;;;10.80;71.45
21361;BME280;10839;43.206;23.550;2023-02-27T08:51:19;97251.69;;;10.65;72.43
21361;BME280;10839;43.206;23.550;2023-02-27T08:53:46;97244.00;;;10.41;73.40
21361;BME280;10839;43.206;23.550;2023-02-27T08:56:11;97244.38;;;11.35;71.58
21361;BME280;10839;43.206;23.550;2023-02-27T08:58:38;97244.72;;;10.70;71.03
21361;BME280;10839;43.206;23.550;2023-02-27T09:01:04;97252.03;;;11.04;71.01
21361;BME280;10839;43.206;23.550;2023-02-27T09:03:29;97263.22;;;11.01;70.95
21361;BME280;10839;43.206;23.550;2023-02-27T09:05:57;97264.22;;;10.01;73.42
21361;BME280;10839;43.206;23.550;2023-02-27T09:08:23;97259.22;;;9.83;75.25
21361;BME280;10839;43.206;23.550;2023-02-27T09:10:48;97262.44;;;10.22;73.61
21361;BME280;10839;43.206;23.550;2023-02-27T09:13:14;97265.63;;;9.82;74.73
21361;BME280;10839;43.206;23.550;2023-02-27T09:15:40;97272.66;;;9.83;76.49
21361;BME280;10839;43.206;23.550;2023-02-27T09:18:06;97273.97;;;9.87;76.65
21361;BME280;10839;43.206;23.550;2023-02-27T09:20:33;97275.00;;;9.57;78.34
21361;BME280;10839;43.206;23.550;2023-02-27T09:23:04;97281.09;;;9.80;78.90
21361;BME280;10839;43.206;23.550;2023-02-27T09:25:30;97282.88;;;8.78;82.61
21361;BME280;10839;43.206;23.550;2023-02-27T09:27:56;97270.09;;;8.80;84.31
21361;BME280;10839;43.206;23.550;2023-02-27T09:30:22;97278.63;;;8.61;86.40
21361;BME280;10839;43.206;23.550;2023-02-27T09:32:49;97285.06;;;8.52;86.64
21361;BME280;10839;43.206;23.550;2023-02-27T09:35:15;97291.63;;;8.72;86.38
21361;BME280;10839;43.206;23.550;2023-02-27T09:37:42;97299.91;;;8.40;89.64
21361;BME280;10839;43.206;23.550;2023-02-27T09:40:25;97302.47;;;8.56;89.46
21361;BME280;10839;43.206;23.550;2023-02-27T09:42:54;97302.03;;;8.14;92.92
21361;BME280;10839;43.206;23.550;2023-02-27T09:45:28;97310.09;;;8.67;92.38
21361;BME280;10839;43.206;23.550;2023-02-27T09:48:42;97316.03;;;8.32;95.03
21361;BME280;10839;43.206;23.550;2023-02-27T09:50:48;97317.22;;;8.29;95.77
21361;BME280;10839;43.206;23.550;2023-02-27T09:53:33;97329.28;;;7.95;97.85
21361;BME280;10839;43.206;23.550;2023-02-27T09:56:25;97324.44;;;8.21;97.38
21361;BME280;10839;43.206;23.550;2023-02-27T09:59:12;97325.13;;;8.53;94.87
21361;BME280;10839;43.206;23.550;2023-02-27T10:01:52;97333.16;;;7.84;96.12
21361;BME280;10839;43.206;23.550;2023-02-27T10:07:30;97337.75;;;8.45;91.16
21361;BME280;10839;43.206;23.550;2023-02-27T10:10:32;97337.19;;;8.27;94.00
21361;BME280;10839;43.206;23.550;2023-02-27T10:16:12;97336.19;;;8.20;94.54
21361;BME280;10839;43.206;23.550;2023-02-27T10:19:05;97337.53;;;8.24;95.17
21361;BME280;10839;43.206;23.550;2023-02-27T10:26:46;97337.34;;;7.87;97.29
21361;BME280;10839;43.206;23.550;2023-02-27T10:29:35;97340.88;;;8.18;96.09
21361;BME280;10839;43.206;23.550;2023-02-27T10:34:30;97345.50;;;8.32;93.40
21361;BME280;10839;43.206;23.550;2023-02-27T10:37:02;97351.28;;;8.13;94.89
21361;BME280;10839;43.206;23.550;2023-02-27T10:39:34;97345.09;;;8.51;92.56
21361;BME280;10839;43.206;23.550;2023-02-27T10:42:05;97347.19;;;8.86;89.87
21361;BME280;10839;43.206;23.550;2023-02-27T10:44:33;97341.44;;;8.44;91.14
21361;BME280;10839;43.206;23.550;2023-02-27T10:46:59;97356.09;;;8.56;91.54
21361;BME280;10839;43.206;23.550;2023-02-27T10:49:25;97361.03;;;8.75;92.65
21361;BME280;10839;43.206;23.550;2023-02-27T10:52:09;97363.16;;;9.02;91.42
21361;BME280;10839;43.206;23.550;2023-02-27T10:54:36;97359.75;;;9.08;92.92
21361;BME280;10839;43.206;23.550;2023-02-27T10:57:06;97365.09;;;9.45;90.38
21361;BME280;10839;43.206;23.550;2023-02-27T10:59:52;97368.34;;;9.41;89.45
21361;BME280;10839;43.206;23.550;2023-02-27T11:02:22;97368.84;;;9.22;91.82
21361;BME280;10839;43.206;23.550;2023-02-27T11:04:52;97371.81;;;9.78;88.84
21361;BME280;10839;43.206;23.550;2023-02-27T11:07:38;97363.19;;;9.68;87.44
21361;BME280;10839;43.206;23.550;2023-02-27T11:12:41;97351.97;;;9.50;89.89
21361;BME280;10839;43.206;23.550;2023-02-27T11:17:40;97352.63;;;9.15;88.91
21361;BME280;10839;43.206;23.550;2023-02-27T11:20:38;97358.06;;;9.07;92.22
21361;BME280;10839;43.206;23.550;2023-02-27T11:23:19;97363.28;;;9.60;89.14
21361;BME280;10839;43.206;23.550;2023-02-27T11:25:46;97360.09;;;9.05;90.21
21361;BME280;10839;43.206;23.550;2023-02-27T11:31:00;97353.84;;;9.64;86.59
21361;BME280;10839;43.206;23.550;2023-02-27T11:33:30;97356.97;;;9.53;86.93
21361;BME280;10839;43.206;23.550;2023-02-27T11:35:58;97357.56;;;8.89;90.51
21361;BME280;10839;43.206;23.550;2023-02-27T11:38:28;97349.66;;;9.10;91.09
21361;BME280;10839;43.206;23.550;2023-02-27T11:40:58;97358.09;;;9.44;89.44
21361;BME280;10839;43.206;23.550;2023-02-27T11:43:39;97360.38;;;9.10;89.61
21361;BME280;10839;43.206;23.550;2023-02-27T11:46:12;97355.56;;;9.28;89.35
21361;BME280;10839;43.206;23.550;2023-02-27T11:49:08;97354.84;;;9.63;86.61
21361;BME280;10839;43.206;23.550;2023-02-27T11:57:06;97370.59;;;9.52;86.09
21361;BME280;10839;43.206;23.550;2023-02-27T11:59:51;97366.00;;;9.23;87.36
21361;BME280;10839;43.206;23.550;2023-02-27T12:07:39;97371.22;;;9.39;87.37
21361;BME280;10839;43.206;23.550;2023-02-27T12:10:08;97371.97;;;9.11;89.16
21361;BME280;10839;43.206;23.550;2023-02-27T12:12:59;97369.19;;;9.41;87.43
21361;BME280;10839;43.206;23.550;2023-02-27T12:21:20;97380.22;;;9.09;89.70
21361;BME280;10839;43.206;23.550;2023-02-27T12:26:32;97383.91;;;9.08;88.55
21361;BME280;10839;43.206;23.550;2023-02-27T12:29:04;97382.13;;;8.78;91.10
21361;BME280;10839;43.206;23.550;2023-02-27T12:36:34;97383.66;;;8.95;89.71
21361;BME280;10839;43.206;23.550;2023-02-27T12:39:00;97381.38;;;9.29;90.08
21361;BME280;10839;43.206;23.550;2023-02-27T12:41:39;97388.19;;;9.40;88.48
21361;BME280;10839;43.206;23.550;2023-02-27T12:50:17;97392.16;;;9.44;86.76
21361;BME280;10839;43.206;23.550;2023-02-27T12:55:41;97398.47;;;8.91;89.91
21361;BME280;10839;43.206;23.550;2023-02-27T13:00:59;97396.69;;;9.06;90.47
21361;BME280;10839;43.206;23.550;2023-02-27T13:03:51;97395.28;;;9.10;91.14
21361;BME280;10839;43.206;23.550;2023-02-27T13:06:31;97403.06;;;9.42;88.92
21361;BME280;10839;43.206;23.550;2023-02-27T13:09:17;97415.28;;;9.07;89.30
21361;BME280;10839;43.206;23.550;2023-02-27T13:20:15;97404.31;;;8.94;91.28
21361;BME280;10839;43.206;23.550;2023-02-27T13:25:15;97400.03;;;9.08;89.50
21361;BME280;10839;43.206;23.550;2023-02-27T13:27:50;97413.72;;;8.68;91.66
21361;BME280;10839;43.206;23.550;2023-02-27T13:35:27;97415.16;;;9.01;90.93
21361;BME280;10839;43.206;23.550;2023-02-27T13:37:57;97414.50;;;8.99;90.49
21361;BME280;10839;43.206;23.550;2023-02-27T13:43:33;97422.06;;;8.73;90.19
21361;BME280;10839;43.206;23.550;2023-02-27T13:45:53;97422.13;;;8.57;92.81
21361;BME280;10839;43.206;23.550;2023-02-27T13:48:36;97417.53;;;8.96;91.51
21361;BME280;10839;43.206;23.550;2023-02-27T13:51:07;97422.09;;;9.18;90.07
21361;BME280;10839;43.206;23.550;2023-02-27T13:53:35;97418.00;;;8.77;93.69
21361;BME280;10839;43.206;23.550;2023-02-27T13:56:20;97427.09;;;9.21;90.85
21361;BME280;10839;43.206;23.550;2023-02-27T13:58:47;97422.19;;;9.02;90.63
21361;BME280;10839;43.206;23.550;2023-02-27T14:01:25;97428.69;;;8.54;93.01
21361;BME280;10839;43.206;23.550;2023-02-27T14:03:57;97425.91;;;9.01;91.23
21361;BME280;10839;43.206;23.550;2023-02-27T14:06:28;97405.13;;;8.95;90.66
21361;BME280;10839;43.206;23.550;2023-02-27T14:08:55;97423.34;;;8.77;92.78
21361;BME280;10839;43.206;23.550;2023-02-27T14:11:26;97417.31;;;8.83;93.40
21361;BME280;10839;43.206;23.550;2023-02-27T14:21:52;97423.88;;;9.03;91.75
21361;BME280;10839;43.206;23.550;2023-02-27T14:24:23;97423.88;;;9.03;92.19
21361;BME280;10839;43.206;23.550;2023-02-27T14:26:51;97418.97;;;8.84;92.88
21361;BME280;10839;43.206;23.550;2023-02-27T14:29:21;97407.50;;;8.90;93.13
21361;BME280;10839;43.206;23.550;2023-02-27T14:31:49;97413.78;;;9.05;91.93
21361;BME280;10839;43.206;23.550;2023-02-27T14:34:19;97423.34;;;8.77;93.39
21361;BME280;10839;43.206;23.550;2023-02-27T14:36:59;97408.09;;;9.00;92.28
21361;BME280;10839;43.206;23.550;2023-02-27T14:39:32;97415.03;;;9.17;91.02
21361;BME280;10839;43.206;23.550;2023-02-27T14:45:02;97420.72;;;8.69;93.14
21361;BME280;10839;43.206;23.550;2023-02-27T14:47:31;97426.94;;;8.92;91.95
21361;BME280;10839;43.206;23.550;2023-02-27T14:49:57;97446.06;;;8.66;91.98
21361;BME280;10839;43.206;23.550;2023-02-27T14:52:29;97435.72;;;8.55;94.42
21361;BME280;10839;43.206;23.550;2023-02-27T14:57:32;97437.31;;;8.72;93.17
21361;BME280;10839;43.206;23.550;2023-02-27T14:59:57;97434.28;;;8.45;95.23
21361;BME280;10839;43.206;23.550;2023-02-27T15:02:25;97432.03;;;8.56;96.87
21361;BME280;10839;43.206;23.550;2023-02-27T15:05:14;97421.59;;;8.92;95.42
21361;BME280;10839;43.206;23.550;2023-02-27T15:07:45;97432.22;;;8.55;97.21
21361;BME280;10839;43.206;23.550;2023-02-27T15:10:20;97437.91;;;8.52;98.51
21361;BME280;10839;43.206;23.550;2023-02-27T15:12:50;97454.16;;;8.89;96.14
21361;BME280;10839;43.206;23.550;2023-02-27T15:15:19;97453.28;;;8.66;98.33
21361;BME280;10839;43.206;23.550;2023-02-27T15:17:45;97452.06;;;8.38;100.00
21361;BME280;10839;43.206;23.550;2023-02-27T15:20:23;97464.63;;;8.76;97.62
21361;BME280;10839;43.206;23.550;2023-02-27T15:22:49;97473.88;;;8.65;95.57
21361;BME280;10839;43.206;23.550;2023-02-27T15:27:55;97480.81;;;8.60;97.44
21361;BME280;10839;43.206;23.550;2023-02-27T15:30:22;97478.22;;;8.36;96.85
21361;BME280;10839;43.206;23.550;2023-02-27T15:32:48;97473.91;;;8.27;97.15
21361;BME280;10839;43.206;23.550;2023-02-27T15:35:20;97473.19;;;8.33;97.87
21361;BME280;10839;43.206;23.550;2023-02-27T15:37:53;97488.09;;;8.35;99.56
21361;BME280;10839;43.206;23.550;2023-02-27T15:40:24;97494.31;;;8.28;96.47
21361;BME280;10839;43.206;23.550;2023-02-27T15:42:52;97499.00;;;8.26;97.82
21361;BME280;10839;43.206;23.550;2023-02-27T15:45:20;97495.00;;;8.06;98.06
21361;BME280;10839;43.206;23.550;2023-02-27T15:47:47;97502.41;;;7.96;100.00
21361;BME280;10839;43.206;23.550;2023-02-27T15:52:49;97517.78;;;8.26;100.00
21361;BME280;10839;43.206;23.550;2023-02-27T15:55:25;97510.03;;;8.39;100.00
21361;BME280;10839;43.206;23.550;2023-02-27T15:57:52;97505.78;;;7.90;100.00
21361;BME280;10839;43.206;23.550;2023-02-27T16:00:20;97513.16;;;7.79;100.00